sensor_id;sensor_type;location;lat;lon;timestamp;P1;durP1;ratioP1;P2;durP2;ratioP2
71202;SDS011;58929;47.490;19.090;2023-05-07T00:02:03;16.23;;;9.15;;
71202;SDS011;58929;47.490;19.090;2023-05-07T00:04:31;10.70;;;8.65;;
71202;SDS011;58929;47.490;19.090;2023-05-07T00:07:03;10.35;;;8.27;;
71202;SDS011;58929;47.490;19.090;2023-05-07T00:09:31;11.85;;;8.95;;
71202;SDS011;58929;47.490;19.090;2023-05-07T00:11:59;11.90;;;8.38;;
71202;SDS011;58929;47.490;19.090;2023-05-07T00:14:27;9.63;;;7.75;;
71202;SDS011;58929;47.490;19.090;2023-05-07T00:16:55;12.60;;;8.77;;
71202;SDS011;58929;47.490;19.090;2023-05-07T00:19:25;11.48;;;9.52;;
71202;SDS011;58929;47.490;19.090;2023-05-07T00:21:53;12.98;;;9.45;;
71202;SDS011;58929;47.490;19.090;2023-05-07T00:24:22;14.88;;;8.80;;
71202;SDS011;58929;47.490;19.090;2023-05-07T00:26:50;14.30;;;9.98;;
71202;SDS011;58929;47.490;19.090;2023-05-07T00:29:19;13.30;;;9.50;;
71202;SDS011;58929;47.490;19.090;2023-05-07T00:31:48;14.57;;;9.23;;
71202;SDS011;58929;47.490;19.090;2023-05-07T00:34:17;14.20;;;10.38;;
71202;SDS011;58929;47.490;19.090;2023-05-07T00:36:46;14.23;;;10.57;;
71202;SDS011;58929;47.490;19.090;2023-05-07T00:39:14;12.15;;;10.85;;
71202;SDS011;58929;47.490;19.090;2023-05-07T00:41:42;12.65;;;9.95;;
71202;SDS011;58929;47.490;19.090;2023-05-07T00:44:10;11.90;;;10.13;;
71202;SDS011;58929;47.490;19.090;2023-05-07T00:46:38;15.32;;;11.05;;
71202;SDS011;58929;47.490;19.090;2023-05-07T00:49:06;15.85;;;11.13;;
71202;SDS011;58929;47.490;19.090;2023-05-07T00:51:34;14.18;;;10.68;;
71202;SDS011;58929;47.490;19.090;2023-05-07T00:54:03;15.48;;;10.57;;
71202;SDS011;58929;47.490;19.090;2023-05-07T00:56:32;12.20;;;9.95;;
71202;SDS011;58929;47.490;19.090;2023-05-07T00:59:00;16.92;;;10.07;;
71202;SDS011;58929;47.490;19.090;2023-05-07T01:01:28;14.45;;;9.93;;
71202;SDS011;58929;47.490;19.090;2023-05-07T01:03:57;16.50;;;10.15;;
71202;SDS011;58929;47.490;19.090;2023-05-07T01:06:25;14.13;;;9.93;;
71202;SDS011;58929;47.490;19.090;2023-05-07T01:08:54;13.73;;;10.35;;
71202;SDS011;58929;47.490;19.090;2023-05-07T01:11:25;13.50;;;10.57;;
71202;SDS011;58929;47.490;19.090;2023-05-07T01:13:53;12.52;;;10.43;;
71202;SDS011;58929;47.490;19.090;2023-05-07T01:16:21;14.82;;;11.30;;
71202;SDS011;58929;47.490;19.090;2023-05-07T01:18:49;14.82;;;11.00;;
71202;SDS011;58929;47.490;19.090;2023-05-07T01:21:17;14.45;;;11.45;;
71202;SDS011;58929;47.490;19.090;2023-05-07T01:23:47;14.98;;;11.07;;
71202;SDS011;58929;47.490;19.090;2023-05-07T01:26:15;15.35;;;11.48;;
71202;SDS011;58929;47.490;19.090;2023-05-07T01:28:46;18.73;;;14.13;;
71202;SDS011;58929;47.490;19.090;2023-05-07T01:31:14;20.90;;;14.07;;
71202;SDS011;58929;47.490;19.090;2023-05-07T01:33:43;16.95;;;13.48;;
71202;SDS011;58929;47.490;19.090;2023-05-07T01:36:12;19.38;;;13.50;;
71202;SDS011;58929;47.490;19.090;2023-05-07T01:38:41;17.67;;;13.15;;
71202;SDS011;58929;47.490;19.090;2023-05-07T01:41:11;18.52;;;13.35;;
71202;SDS011;58929;47.490;19.090;2023-05-07T01:43:40;21.30;;;13.75;;
71202;SDS011;58929;47.490;19.090;2023-05-07T01:46:09;18.48;;;13.88;;
71202;SDS011;58929;47.490;19.090;2023-05-07T01:48:38;17.75;;;14.20;;
71202;SDS011;58929;47.490;19.090;2023-05-07T01:51:06;19.75;;;14.98;;
71202;SDS011;58929;47.490;19.090;2023-05-07T01:53:35;22.30;;;14.80;;
71202;SDS011;58929;47.490;19.090;2023-05-07T01:56:04;17.73;;;14.48;;
71202;SDS011;58929;47.490;19.090;2023-05-07T01:58:35;18.38;;;14.35;;
71202;SDS011;58929;47.490;19.090;2023-05-07T02:01:03;20.77;;;14.43;;
71202;SDS011;58929;47.490;19.090;2023-05-07T02:03:31;20.63;;;14.50;;
71202;SDS011;58929;47.490;19.090;2023-05-07T02:06:07;21.98;;;15.48;;
71202;SDS011;58929;47.490;19.090;2023-05-07T02:08:37;17.63;;;14.07;;
71202;SDS011;58929;47.490;19.090;2023-05-07T02:11:06;14.25;;;12.73;;
71202;SDS011;58929;47.490;19.090;2023-05-07T02:13:36;20.88;;;13.65;;
71202;SDS011;58929;47.490;19.090;2023-05-07T02:16:04;19.10;;;13.60;;
71202;SDS011;58929;47.490;19.090;2023-05-07T02:18:33;20.20;;;13.23;;
71202;SDS011;58929;47.490;19.090;2023-05-07T02:21:02;18.15;;;12.50;;
71202;SDS011;58929;47.490;19.090;2023-05-07T02:23:30;17.85;;;13.38;;
71202;SDS011;58929;47.490;19.090;2023-05-07T02:25:58;17.15;;;12.63;;
71202;SDS011;58929;47.490;19.090;2023-05-07T02:28:27;17.38;;;13.38;;
71202;SDS011;58929;47.490;19.090;2023-05-07T02:31:03;19.23;;;12.88;;
71202;SDS011;58929;47.490;19.090;2023-05-07T02:33:31;16.73;;;12.52;;
71202;SDS011;58929;47.490;19.090;2023-05-07T02:36:07;13.13;;;11.80;;
71202;SDS011;58929;47.490;19.090;2023-05-07T02:38:39;15.35;;;12.10;;
71202;SDS011;58929;47.490;19.090;2023-05-07T02:41:07;13.13;;;11.73;;
71202;SDS011;58929;47.490;19.090;2023-05-07T02:43:34;15.23;;;12.45;;
71202;SDS011;58929;47.490;19.090;2023-05-07T02:46:05;13.45;;;11.98;;
71202;SDS011;58929;47.490;19.090;2023-05-07T02:48:37;15.18;;;11.90;;
71202;SDS011;58929;47.490;19.090;2023-05-07T02:51:05;17.75;;;11.43;;
71202;SDS011;58929;47.490;19.090;2023-05-07T02:53:38;16.33;;;11.57;;
71202;SDS011;58929;47.490;19.090;2023-05-07T02:56:06;17.90;;;11.25;;
71202;SDS011;58929;47.490;19.090;2023-05-07T02:58:34;17.25;;;11.20;;
71202;SDS011;58929;47.490;19.090;2023-05-07T03:01:04;15.15;;;11.25;;
71202;SDS011;58929;47.490;19.090;2023-05-07T03:03:45;16.10;;;11.35;;
71202;SDS011;58929;47.490;19.090;2023-05-07T03:06:14;13.85;;;11.10;;
71202;SDS011;58929;47.490;19.090;2023-05-07T03:08:42;13.48;;;11.38;;
71202;SDS011;58929;47.490;19.090;2023-05-07T03:11:11;15.25;;;11.32;;
71202;SDS011;58929;47.490;19.090;2023-05-07T03:13:38;11.45;;;10.25;;
71202;SDS011;58929;47.490;19.090;2023-05-07T03:16:08;13.65;;;11.57;;
71202;SDS011;58929;47.490;19.090;2023-05-07T03:18:36;11.85;;;10.35;;
71202;SDS011;58929;47.490;19.090;2023-05-07T03:21:04;16.70;;;10.70;;
71202;SDS011;58929;47.490;19.090;2023-05-07T03:23:32;11.75;;;10.55;;
71202;SDS011;58929;47.490;19.090;2023-05-07T03:26:00;13.77;;;10.30;;
71202;SDS011;58929;47.490;19.090;2023-05-07T03:28:28;15.38;;;11.07;;
71202;SDS011;58929;47.490;19.090;2023-05-07T03:31:00;13.18;;;11.63;;
71202;SDS011;58929;47.490;19.090;2023-05-07T03:33:32;13.02;;;11.32;;
71202;SDS011;58929;47.490;19.090;2023-05-07T03:36:02;12.48;;;10.30;;
71202;SDS011;58929;47.490;19.090;2023-05-07T03:38:30;13.30;;;10.80;;
71202;SDS011;58929;47.490;19.090;2023-05-07T03:40:59;14.27;;;10.57;;
71202;SDS011;58929;47.490;19.090;2023-05-07T03:43:27;16.20;;;10.43;;
71202;SDS011;58929;47.490;19.090;2023-05-07T03:46:02;13.50;;;10.25;;
71202;SDS011;58929;47.490;19.090;2023-05-07T03:48:31;13.45;;;10.55;;
71202;SDS011;58929;47.490;19.090;2023-05-07T03:51:00;13.48;;;10.43;;
71202;SDS011;58929;47.490;19.090;2023-05-07T03:53:31;13.10;;;11.10;;
71202;SDS011;58929;47.490;19.090;2023-05-07T03:55:59;14.20;;;11.13;;
71202;SDS011;58929;47.490;19.090;2023-05-07T03:58:31;16.48;;;11.10;;
71202;SDS011;58929;47.490;19.090;2023-05-07T04:01:03;13.35;;;10.98;;
71202;SDS011;58929;47.490;19.090;2023-05-07T04:03:33;12.18;;;9.85;;
71202;SDS011;58929;47.490;19.090;2023-05-07T04:06:03;11.93;;;9.98;;
71202;SDS011;58929;47.490;19.090;2023-05-07T04:08:34;12.50;;;9.90;;
71202;SDS011;58929;47.490;19.090;2023-05-07T04:11:03;10.57;;;9.10;;
71202;SDS011;58929;47.490;19.090;2023-05-07T04:13:33;11.65;;;8.50;;
71202;SDS011;58929;47.490;19.090;2023-05-07T04:16:04;13.13;;;9.00;;
71202;SDS011;58929;47.490;19.090;2023-05-07T04:18:36;13.65;;;9.57;;
71202;SDS011;58929;47.490;19.090;2023-05-07T04:21:04;12.25;;;8.82;;
71202;SDS011;58929;47.490;19.090;2023-05-07T04:23:35;9.77;;;8.45;;
71202;SDS011;58929;47.490;19.090;2023-05-07T04:26:07;11.90;;;9.35;;
71202;SDS011;58929;47.490;19.090;2023-05-07T04:28:39;23.42;;;16.83;;
71202;SDS011;58929;47.490;19.090;2023-05-07T04:31:09;15.20;;;12.15;;
71202;SDS011;58929;47.490;19.090;2023-05-07T04:33:40;14.48;;;9.98;;
71202;SDS011;58929;47.490;19.090;2023-05-07T04:36:12;12.27;;;8.20;;
71202;SDS011;58929;47.490;19.090;2023-05-07T04:38:52;11.82;;;8.63;;
71202;SDS011;58929;47.490;19.090;2023-05-07T04:41:20;9.48;;;7.97;;
71202;SDS011;58929;47.490;19.090;2023-05-07T04:43:48;9.85;;;7.80;;
71202;SDS011;58929;47.490;19.090;2023-05-07T04:46:18;9.90;;;8.35;;
71202;SDS011;58929;47.490;19.090;2023-05-07T04:48:49;10.13;;;8.00;;
71202;SDS011;58929;47.490;19.090;2023-05-07T04:51:18;7.57;;;6.78;;
71202;SDS011;58929;47.490;19.090;2023-05-07T04:53:46;7.50;;;6.80;;
71202;SDS011;58929;47.490;19.090;2023-05-07T04:56:14;8.48;;;6.68;;
71202;SDS011;58929;47.490;19.090;2023-05-07T04:58:44;9.80;;;6.95;;
71202;SDS011;58929;47.490;19.090;2023-05-07T05:01:14;9.63;;;7.00;;
71202;SDS011;58929;47.490;19.090;2023-05-07T05:03:42;8.75;;;7.13;;
71202;SDS011;58929;47.490;19.090;2023-05-07T05:06:12;10.48;;;7.88;;
71202;SDS011;58929;47.490;19.090;2023-05-07T05:08:40;9.60;;;8.02;;
71202;SDS011;58929;47.490;19.090;2023-05-07T05:11:09;11.23;;;8.45;;
71202;SDS011;58929;47.490;19.090;2023-05-07T05:13:39;9.52;;;7.80;;
71202;SDS011;58929;47.490;19.090;2023-05-07T05:16:13;8.80;;;7.90;;
71202;SDS011;58929;47.490;19.090;2023-05-07T05:18:41;9.57;;;7.90;;
71202;SDS011;58929;47.490;19.090;2023-05-07T05:21:13;11.48;;;8.43;;
71202;SDS011;58929;47.490;19.090;2023-05-07T05:23:43;13.50;;;8.75;;
71202;SDS011;58929;47.490;19.090;2023-05-07T05:26:14;12.10;;;8.82;;
71202;SDS011;58929;47.490;19.090;2023-05-07T05:28:42;9.07;;;7.82;;
71202;SDS011;58929;47.490;19.090;2023-05-07T05:31:11;10.23;;;8.50;;
71202;SDS011;58929;47.490;19.090;2023-05-07T05:33:39;10.85;;;7.80;;
71202;SDS011;58929;47.490;19.090;2023-05-07T05:36:09;9.35;;;8.35;;
71202;SDS011;58929;47.490;19.090;2023-05-07T05:38:39;12.00;;;8.57;;
71202;SDS011;58929;47.490;19.090;2023-05-07T05:41:08;9.73;;;7.93;;
71202;SDS011;58929;47.490;19.090;2023-05-07T05:43:36;9.13;;;7.57;;
71202;SDS011;58929;47.490;19.090;2023-05-07T05:46:04;10.40;;;6.40;;
71202;SDS011;58929;47.490;19.090;2023-05-07T05:48:32;9.50;;;8.20;;
71202;SDS011;58929;47.490;19.090;2023-05-07T05:51:03;10.38;;;8.00;;
71202;SDS011;58929;47.490;19.090;2023-05-07T05:53:31;12.27;;;9.02;;
71202;SDS011;58929;47.490;19.090;2023-05-07T05:56:00;18.55;;;14.30;;
71202;SDS011;58929;47.490;19.090;2023-05-07T05:58:30;26.67;;;18.65;;
71202;SDS011;58929;47.490;19.090;2023-05-07T06:01:01;11.43;;;9.60;;
71202;SDS011;58929;47.490;19.090;2023-05-07T06:03:30;9.70;;;8.70;;
71202;SDS011;58929;47.490;19.090;2023-05-07T06:06:03;11.63;;;9.77;;
71202;SDS011;58929;47.490;19.090;2023-05-07T06:08:31;10.95;;;9.05;;
71202;SDS011;58929;47.490;19.090;2023-05-07T06:11:01;16.55;;;9.02;;
71202;SDS011;58929;47.490;19.090;2023-05-07T06:13:32;11.48;;;9.88;;
71202;SDS011;58929;47.490;19.090;2023-05-07T06:16:00;10.23;;;7.60;;
71202;SDS011;58929;47.490;19.090;2023-05-07T06:18:29;7.82;;;6.93;;
71202;SDS011;58929;47.490;19.090;2023-05-07T06:20:58;6.65;;;6.00;;
71202;SDS011;58929;47.490;19.090;2023-05-07T06:23:29;9.90;;;6.00;;
71202;SDS011;58929;47.490;19.090;2023-05-07T06:25:59;7.00;;;6.13;;
71202;SDS011;58929;47.490;19.090;2023-05-07T06:28:34;8.50;;;6.43;;
71202;SDS011;58929;47.490;19.090;2023-05-07T06:31:12;7.03;;;5.70;;
71202;SDS011;58929;47.490;19.090;2023-05-07T06:33:43;11.43;;;6.00;;
71202;SDS011;58929;47.490;19.090;2023-05-07T06:36:12;7.78;;;6.18;;
71202;SDS011;58929;47.490;19.090;2023-05-07T06:38:40;5.80;;;5.20;;
71202;SDS011;58929;47.490;19.090;2023-05-07T06:41:08;7.38;;;5.65;;
71202;SDS011;58929;47.490;19.090;2023-05-07T06:43:39;14.38;;;9.43;;
71202;SDS011;58929;47.490;19.090;2023-05-07T06:46:25;8.23;;;6.47;;
71202;SDS011;58929;47.490;19.090;2023-05-07T06:48:53;6.00;;;5.13;;
71202;SDS011;58929;47.490;19.090;2023-05-07T06:51:23;8.38;;;5.38;;
71202;SDS011;58929;47.490;19.090;2023-05-07T06:53:51;4.82;;;4.32;;
71202;SDS011;58929;47.490;19.090;2023-05-07T06:56:19;5.03;;;3.97;;
71202;SDS011;58929;47.490;19.090;2023-05-07T06:58:49;16.73;;;12.05;;
71202;SDS011;58929;47.490;19.090;2023-05-07T07:01:17;10.77;;;8.13;;
71202;SDS011;58929;47.490;19.090;2023-05-07T07:03:45;5.38;;;4.25;;
71202;SDS011;58929;47.490;19.090;2023-05-07T07:06:13;4.50;;;3.38;;
71202;SDS011;58929;47.490;19.090;2023-05-07T07:08:41;4.10;;;3.53;;
71202;SDS011;58929;47.490;19.090;2023-05-07T07:11:13;3.10;;;2.55;;
71202;SDS011;58929;47.490;19.090;2023-05-07T07:13:42;3.92;;;3.25;;
71202;SDS011;58929;47.490;19.090;2023-05-07T07:16:12;6.35;;;2.92;;
71202;SDS011;58929;47.490;19.090;2023-05-07T07:18:40;8.90;;;3.30;;
71202;SDS011;58929;47.490;19.090;2023-05-07T07:21:08;4.65;;;3.85;;
71202;SDS011;58929;47.490;19.090;2023-05-07T07:23:36;5.85;;;4.07;;
71202;SDS011;58929;47.490;19.090;2023-05-07T07:26:05;6.70;;;3.65;;
71202;SDS011;58929;47.490;19.090;2023-05-07T07:28:33;8.30;;;4.82;;
71202;SDS011;58929;47.490;19.090;2023-05-07T07:31:01;7.47;;;4.68;;
71202;SDS011;58929;47.490;19.090;2023-05-07T07:33:31;6.55;;;3.85;;
71202;SDS011;58929;47.490;19.090;2023-05-07T07:35:59;7.43;;;3.83;;
71202;SDS011;58929;47.490;19.090;2023-05-07T07:38:27;7.50;;;4.03;;
71202;SDS011;58929;47.490;19.090;2023-05-07T07:40:55;5.95;;;4.10;;
71202;SDS011;58929;47.490;19.090;2023-05-07T07:43:23;4.20;;;3.70;;
71202;SDS011;58929;47.490;19.090;2023-05-07T07:45:52;3.40;;;3.10;;
71202;SDS011;58929;47.490;19.090;2023-05-07T07:48:20;3.40;;;3.10;;
71202;SDS011;58929;47.490;19.090;2023-05-07T07:50:50;6.40;;;5.25;;
71202;SDS011;58929;47.490;19.090;2023-05-07T07:53:18;7.40;;;4.25;;
71202;SDS011;58929;47.490;19.090;2023-05-07T07:55:46;4.68;;;4.18;;
71202;SDS011;58929;47.490;19.090;2023-05-07T07:58:17;4.40;;;4.00;;
71202;SDS011;58929;47.490;19.090;2023-05-07T08:00:53;4.22;;;3.20;;
71202;SDS011;58929;47.490;19.090;2023-05-07T08:03:23;3.28;;;2.97;;
71202;SDS011;58929;47.490;19.090;2023-05-07T08:05:57;4.97;;;3.92;;
71202;SDS011;58929;47.490;19.090;2023-05-07T08:08:26;5.88;;;3.40;;
71202;SDS011;58929;47.490;19.090;2023-05-07T08:10:54;4.05;;;3.65;;
71202;SDS011;58929;47.490;19.090;2023-05-07T08:13:27;6.47;;;3.47;;
71202;SDS011;58929;47.490;19.090;2023-05-07T08:15:57;5.38;;;4.00;;
71202;SDS011;58929;47.490;19.090;2023-05-07T08:18:25;4.43;;;4.00;;
71202;SDS011;58929;47.490;19.090;2023-05-07T08:21:01;7.22;;;4.50;;
71202;SDS011;58929;47.490;19.090;2023-05-07T08:23:30;4.25;;;3.63;;
71202;SDS011;58929;47.490;19.090;2023-05-07T08:25:59;8.38;;;4.32;;
71202;SDS011;58929;47.490;19.090;2023-05-07T08:28:28;7.25;;;4.13;;
71202;SDS011;58929;47.490;19.090;2023-05-07T08:30:56;5.70;;;3.58;;
71202;SDS011;58929;47.490;19.090;2023-05-07T08:33:30;3.85;;;3.33;;
71202;SDS011;58929;47.490;19.090;2023-05-07T08:35:58;3.60;;;3.30;;
71202;SDS011;58929;47.490;19.090;2023-05-07T08:38:29;4.57;;;3.67;;
71202;SDS011;58929;47.490;19.090;2023-05-07T08:40:57;2.97;;;2.78;;
71202;SDS011;58929;47.490;19.090;2023-05-07T08:43:28;2.95;;;2.65;;
71202;SDS011;58929;47.490;19.090;2023-05-07T08:45:56;3.45;;;2.60;;
71202;SDS011;58929;47.490;19.090;2023-05-07T08:48:28;4.22;;;3.50;;
71202;SDS011;58929;47.490;19.090;2023-05-07T08:51:05;4.18;;;3.33;;
71202;SDS011;58929;47.490;19.090;2023-05-07T08:53:35;3.83;;;3.30;;
71202;SDS011;58929;47.490;19.090;2023-05-07T08:56:04;5.25;;;3.10;;
71202;SDS011;58929;47.490;19.090;2023-05-07T08:58:33;5.72;;;3.28;;
71202;SDS011;58929;47.490;19.090;2023-05-07T09:01:01;2.70;;;2.40;;
71202;SDS011;58929;47.490;19.090;2023-05-07T09:03:31;3.10;;;2.80;;
71202;SDS011;58929;47.490;19.090;2023-05-07T09:05:59;4.30;;;3.00;;
71202;SDS011;58929;47.490;19.090;2023-05-07T09:08:28;4.00;;;3.55;;
71202;SDS011;58929;47.490;19.090;2023-05-07T09:11:01;4.75;;;4.25;;
71202;SDS011;58929;47.490;19.090;2023-05-07T09:13:29;5.82;;;3.53;;
71202;SDS011;58929;47.490;19.090;2023-05-07T09:16:06;5.45;;;3.72;;
71202;SDS011;58929;47.490;19.090;2023-05-07T09:18:41;3.70;;;3.30;;
71202;SDS011;58929;47.490;19.090;2023-05-07T09:21:11;4.80;;;3.72;;
71202;SDS011;58929;47.490;19.090;2023-05-07T09:23:39;4.00;;;3.50;;
71202;SDS011;58929;47.490;19.090;2023-05-07T09:26:09;4.82;;;3.58;;
71202;SDS011;58929;47.490;19.090;2023-05-07T09:28:40;4.13;;;3.72;;
71202;SDS011;58929;47.490;19.090;2023-05-07T09:31:11;12.27;;;4.50;;
71202;SDS011;58929;47.490;19.090;2023-05-07T09:33:39;5.35;;;3.88;;
71202;SDS011;58929;47.490;19.090;2023-05-07T09:36:09;3.33;;;2.40;;
71202;SDS011;58929;47.490;19.090;2023-05-07T09:38:39;3.53;;;2.20;;
71202;SDS011;58929;47.490;19.090;2023-05-07T09:41:09;5.22;;;2.80;;
71202;SDS011;58929;47.490;19.090;2023-05-07T09:43:58;3.45;;;2.20;;
71202;SDS011;58929;47.490;19.090;2023-05-07T09:46:34;3.63;;;1.90;;
71202;SDS011;58929;47.490;19.090;2023-05-07T09:49:12;2.30;;;2.00;;
71202;SDS011;58929;47.490;19.090;2023-05-07T09:51:47;4.93;;;1.98;;
71202;SDS011;58929;47.490;19.090;2023-05-07T09:54:18;5.53;;;2.50;;
71202;SDS011;58929;47.490;19.090;2023-05-07T09:56:50;3.53;;;2.65;;
71202;SDS011;58929;47.490;19.090;2023-05-07T09:59:22;6.53;;;2.25;;
71202;SDS011;58929;47.490;19.090;2023-05-07T10:01:50;5.75;;;2.72;;
71202;SDS011;58929;47.490;19.090;2023-05-07T10:04:20;4.30;;;3.08;;
71202;SDS011;58929;47.490;19.090;2023-05-07T10:06:50;3.25;;;2.95;;
71202;SDS011;58929;47.490;19.090;2023-05-07T10:09:19;4.15;;;2.65;;
71202;SDS011;58929;47.490;19.090;2023-05-07T10:11:48;4.30;;;2.58;;
71202;SDS011;58929;47.490;19.090;2023-05-07T10:14:18;5.95;;;3.33;;
71202;SDS011;58929;47.490;19.090;2023-05-07T10:16:47;5.65;;;3.85;;
71202;SDS011;58929;47.490;19.090;2023-05-07T10:19:16;4.07;;;3.67;;
71202;SDS011;58929;47.490;19.090;2023-05-07T10:21:48;7.22;;;3.88;;
71202;SDS011;58929;47.490;19.090;2023-05-07T10:24:19;4.10;;;3.70;;
71202;SDS011;58929;47.490;19.090;2023-05-07T10:26:48;6.97;;;3.75;;
71202;SDS011;58929;47.490;19.090;2023-05-07T10:29:21;6.15;;;3.38;;
71202;SDS011;58929;47.490;19.090;2023-05-07T10:31:57;4.85;;;3.58;;
71202;SDS011;58929;47.490;19.090;2023-05-07T10:34:29;5.45;;;3.80;;
71202;SDS011;58929;47.490;19.090;2023-05-07T10:37:00;6.00;;;3.75;;
71202;SDS011;58929;47.490;19.090;2023-05-07T10:39:29;4.50;;;3.97;;
71202;SDS011;58929;47.490;19.090;2023-05-07T10:42:07;6.38;;;4.88;;
71202;SDS011;58929;47.490;19.090;2023-05-07T10:44:36;4.97;;;4.15;;
71202;SDS011;58929;47.490;19.090;2023-05-07T10:47:12;6.22;;;4.30;;
71202;SDS011;58929;47.490;19.090;2023-05-07T10:52:30;5.93;;;3.90;;
71202;SDS011;58929;47.490;19.090;2023-05-07T10:55:18;4.32;;;3.80;;
71202;SDS011;58929;47.490;19.090;2023-05-07T11:04:20;6.65;;;3.28;;
71202;SDS011;58929;47.490;19.090;2023-05-07T11:07:26;4.22;;;3.53;;
71202;SDS011;58929;47.490;19.090;2023-05-07T11:10:00;9.63;;;3.55;;
71202;SDS011;58929;47.490;19.090;2023-05-07T11:12:57;17.17;;;3.88;;
71202;SDS011;58929;47.490;19.090;2023-05-07T11:15:43;5.13;;;3.15;;
71202;SDS011;58929;47.490;19.090;2023-05-07T11:18:30;5.30;;;2.92;;
71202;SDS011;58929;47.490;19.090;2023-05-07T11:21:15;4.03;;;3.28;;
71202;SDS011;58929;47.490;19.090;2023-05-07T11:24:07;3.40;;;2.85;;
71202;SDS011;58929;47.490;19.090;2023-05-07T11:26:45;4.90;;;2.75;;
71202;SDS011;58929;47.490;19.090;2023-05-07T11:29:16;5.82;;;2.63;;
71202;SDS011;58929;47.490;19.090;2023-05-07T11:31:50;6.20;;;2.90;;
71202;SDS011;58929;47.490;19.090;2023-05-07T11:34:21;3.45;;;2.70;;
71202;SDS011;58929;47.490;19.090;2023-05-07T11:36:52;3.53;;;2.58;;
71202;SDS011;58929;47.490;19.090;2023-05-07T11:39:30;4.80;;;2.92;;
71202;SDS011;58929;47.490;19.090;2023-05-07T11:41:59;4.97;;;2.65;;
71202;SDS011;58929;47.490;19.090;2023-05-07T11:44:40;3.25;;;2.60;;
71202;SDS011;58929;47.490;19.090;2023-05-07T11:47:09;5.90;;;3.00;;
71202;SDS011;58929;47.490;19.090;2023-05-07T11:49:37;3.45;;;2.95;;
71202;SDS011;58929;47.490;19.090;2023-05-07T11:52:06;2.95;;;2.60;;
71202;SDS011;58929;47.490;19.090;2023-05-07T11:54:35;3.08;;;2.45;;
71202;SDS011;58929;47.490;19.090;2023-05-07T11:57:03;3.80;;;3.20;;
71202;SDS011;58929;47.490;19.090;2023-05-07T11:59:37;11.23;;;6.70;;
71202;SDS011;58929;47.490;19.090;2023-05-07T12:02:06;6.03;;;2.85;;
71202;SDS011;58929;47.490;19.090;2023-05-07T12:04:34;3.60;;;2.60;;
71202;SDS011;58929;47.490;19.090;2023-05-07T12:07:02;5.30;;;2.88;;
71202;SDS011;58929;47.490;19.090;2023-05-07T12:09:33;2.47;;;2.28;;
71202;SDS011;58929;47.490;19.090;2023-05-07T12:12:04;3.03;;;2.13;;
71202;SDS011;58929;47.490;19.090;2023-05-07T12:14:32;3.25;;;2.28;;
71202;SDS011;58929;47.490;19.090;2023-05-07T12:17:00;4.95;;;2.33;;
71202;SDS011;58929;47.490;19.090;2023-05-07T12:19:30;3.00;;;2.70;;
71202;SDS011;58929;47.490;19.090;2023-05-07T12:21:58;8.27;;;2.60;;
71202;SDS011;58929;47.490;19.090;2023-05-07T12:24:26;4.07;;;2.30;;
71202;SDS011;58929;47.490;19.090;2023-05-07T12:26:55;3.05;;;2.10;;
71202;SDS011;58929;47.490;19.090;2023-05-07T12:29:23;3.55;;;2.10;;
71202;SDS011;58929;47.490;19.090;2023-05-07T12:31:51;3.67;;;2.17;;
71202;SDS011;58929;47.490;19.090;2023-05-07T12:34:19;3.03;;;2.20;;
71202;SDS011;58929;47.490;19.090;2023-05-07T12:36:47;10.40;;;2.35;;
71202;SDS011;58929;47.490;19.090;2023-05-07T12:39:15;4.18;;;1.95;;
71202;SDS011;58929;47.490;19.090;2023-05-07T12:41:52;3.58;;;2.40;;
71202;SDS011;58929;47.490;19.090;2023-05-07T12:44:23;2.58;;;2.03;;
71202;SDS011;58929;47.490;19.090;2023-05-07T12:46:51;2.83;;;2.53;;
71202;SDS011;58929;47.490;19.090;2023-05-07T12:49:19;2.42;;;1.92;;
71202;SDS011;58929;47.490;19.090;2023-05-07T12:51:50;2.10;;;1.67;;
71202;SDS011;58929;47.490;19.090;2023-05-07T12:54:27;5.20;;;2.25;;
71202;SDS011;58929;47.490;19.090;2023-05-07T12:57:06;1.85;;;1.58;;
71202;SDS011;58929;47.490;19.090;2023-05-07T12:59:36;4.68;;;1.85;;
71202;SDS011;58929;47.490;19.090;2023-05-07T13:02:04;3.33;;;2.00;;
71202;SDS011;58929;47.490;19.090;2023-05-07T13:04:34;3.85;;;1.80;;
71202;SDS011;58929;47.490;19.090;2023-05-07T13:07:02;6.18;;;1.63;;
71202;SDS011;58929;47.490;19.090;2023-05-07T13:09:30;3.53;;;1.70;;
71202;SDS011;58929;47.490;19.090;2023-05-07T13:11:59;6.68;;;2.13;;
71202;SDS011;58929;47.490;19.090;2023-05-07T13:14:28;3.92;;;2.08;;
71202;SDS011;58929;47.490;19.090;2023-05-07T13:16:58;3.40;;;1.83;;
71202;SDS011;58929;47.490;19.090;2023-05-07T13:19:26;2.28;;;1.92;;
71202;SDS011;58929;47.490;19.090;2023-05-07T13:21:56;4.38;;;1.60;;
71202;SDS011;58929;47.490;19.090;2023-05-07T13:24:24;3.65;;;2.47;;
71202;SDS011;58929;47.490;19.090;2023-05-07T13:26:53;4.22;;;2.25;;
71202;SDS011;58929;47.490;19.090;2023-05-07T13:29:21;2.40;;;2.13;;
71202;SDS011;58929;47.490;19.090;2023-05-07T13:31:55;1.70;;;1.55;;
71202;SDS011;58929;47.490;19.090;2023-05-07T13:34:25;8.70;;;2.13;;
71202;SDS011;58929;47.490;19.090;2023-05-07T13:36:53;1.80;;;1.70;;
71202;SDS011;58929;47.490;19.090;2023-05-07T13:39:21;3.13;;;1.80;;
71202;SDS011;58929;47.490;19.090;2023-05-07T13:41:49;6.40;;;2.03;;
71202;SDS011;58929;47.490;19.090;2023-05-07T13:44:18;2.65;;;1.77;;
71202;SDS011;58929;47.490;19.090;2023-05-07T13:46:47;1.95;;;1.70;;
71202;SDS011;58929;47.490;19.090;2023-05-07T13:49:15;1.83;;;1.63;;
71202;SDS011;58929;47.490;19.090;2023-05-07T13:51:45;1.90;;;1.70;;
71202;SDS011;58929;47.490;19.090;2023-05-07T13:54:13;2.25;;;1.70;;
71202;SDS011;58929;47.490;19.090;2023-05-07T13:56:41;3.35;;;1.70;;
71202;SDS011;58929;47.490;19.090;2023-05-07T13:59:09;1.67;;;1.58;;
71202;SDS011;58929;47.490;19.090;2023-05-07T14:01:38;3.88;;;2.30;;
71202;SDS011;58929;47.490;19.090;2023-05-07T14:04:07;6.82;;;2.20;;
71202;SDS011;58929;47.490;19.090;2023-05-07T14:06:35;2.92;;;2.22;;
71202;SDS011;58929;47.490;19.090;2023-05-07T14:09:04;3.72;;;2.45;;
71202;SDS011;58929;47.490;19.090;2023-05-07T14:11:32;4.20;;;2.33;;
71202;SDS011;58929;47.490;19.090;2023-05-07T14:14:01;2.55;;;2.13;;
71202;SDS011;58929;47.490;19.090;2023-05-07T14:16:29;4.00;;;2.17;;
71202;SDS011;58929;47.490;19.090;2023-05-07T14:18:58;5.43;;;2.10;;
71202;SDS011;58929;47.490;19.090;2023-05-07T14:21:26;3.17;;;2.45;;
71202;SDS011;58929;47.490;19.090;2023-05-07T14:23:54;3.63;;;2.03;;
71202;SDS011;58929;47.490;19.090;2023-05-07T14:26:24;2.30;;;2.10;;
71202;SDS011;58929;47.490;19.090;2023-05-07T14:28:53;5.20;;;2.15;;
71202;SDS011;58929;47.490;19.090;2023-05-07T14:31:23;2.58;;;2.10;;
71202;SDS011;58929;47.490;19.090;2023-05-07T14:33:52;2.22;;;1.92;;
71202;SDS011;58929;47.490;19.090;2023-05-07T14:36:20;3.33;;;2.22;;
71202;SDS011;58929;47.490;19.090;2023-05-07T14:38:49;8.85;;;2.30;;
71202;SDS011;58929;47.490;19.090;2023-05-07T14:41:17;2.22;;;1.92;;
71202;SDS011;58929;47.490;19.090;2023-05-07T14:43:47;3.55;;;2.15;;
71202;SDS011;58929;47.490;19.090;2023-05-07T14:46:16;2.30;;;2.10;;
71202;SDS011;58929;47.490;19.090;2023-05-07T14:48:45;5.90;;;2.15;;
71202;SDS011;58929;47.490;19.090;2023-05-07T14:51:13;5.68;;;2.60;;
71202;SDS011;58929;47.490;19.090;2023-05-07T14:53:41;2.42;;;2.20;;